Time;durP1;ratioP1;P1;durP2;ratioP2;P2;SDS_P1;SDS_P2;PMS_P1;PMS_P2;Temp;Humidity;BMP_temperature;BMP_pressure;BME280_temperature;BME280_humidity;BME280_pressure;Samples;Min_cycle;Max_cycle;Signal;HPM_P1;HPM_P2
2022/03/24 00:01:39;;;;;;;13.38;9.57;;;11.50;43.90;;;;;;5095364;28;20024;-31
2022/03/24 00:04:04;;;;;;;16.58;10.48;;;11.50;43.90;;;;;;5095371;28;20495;-29
2022/03/24 00:06:30;;;;;;;13.00;9.32;;;11.50;43.90;;;;;;5095247;28;20021;-30
2022/03/24 00:08:56;;;;;;;14.15;9.70;;;11.40;43.90;;;;;;5095500;28;20020;-29
2022/03/24 00:11:22;;;;;;;15.38;10.30;;;11.40;44.00;;;;;;5095162;28;20024;-31
2022/03/24 00:13:50;;;;;;;13.63;9.45;;;11.40;44.10;;;;;;5095129;28;20020;-29
2022/03/24 00:16:17;;;;;;;14.35;9.80;;;11.40;44.10;;;;;;5095065;28;20031;-29
2022/03/24 00:18:43;;;;;;;13.27;9.50;;;11.40;44.20;;;;;;5077130;28;20069;-34
2022/03/24 00:21:09;;;;;;;15.93;10.38;;;11.40;44.30;;;;;;5095062;28;20503;-30
2022/03/24 00:23:35;;;;;;;14.00;10.02;;;11.30;44.40;;;;;;5094958;28;20016;-29
2022/03/24 00:26:00;;;;;;;17.02;10.75;;;11.30;44.50;;;;;;5076731;28;20023;-29
2022/03/24 00:28:26;;;;;;;17.33;10.50;;;11.30;44.70;;;;;;5094889;28;20028;-31
2022/03/24 00:30:52;;;;;;;17.05;10.27;;;11.20;44.70;;;;;;5076740;28;20480;-29
2022/03/24 00:33:18;;;;;;;13.45;9.80;;;11.20;44.90;;;;;;5094744;28;20028;-30
2022/03/24 00:35:43;;;;;;;14.38;10.38;;;11.20;44.90;;;;;;5094661;28;20578;-29
2022/03/24 00:38:09;;;;;;;18.30;10.15;;;11.10;45.00;;;;;;5094565;28;20028;-31
2022/03/24 00:40:35;;;;;;;17.95;10.35;;;11.10;45.10;;;;;;5094633;28;20028;-28
2022/03/24 00:43:01;;;;;;;16.80;9.75;;;11.10;45.20;;;;;;5094560;28;20017;-33
2022/03/24 00:45:27;;;;;;;13.98;10.25;;;11.00;45.30;;;;;;5094508;28;20097;-28
2022/03/24 00:47:53;;;;;;;13.30;9.55;;;11.00;45.40;;;;;;5094718;28;20480;-28
2022/03/24 00:50:19;;;;;;;17.00;10.25;;;11.00;45.40;;;;;;5093887;28;20022;-28
2022/03/24 00:52:45;;;;;;;16.42;10.10;;;10.90;45.40;;;;;;5076249;28;20028;-29
2022/03/24 00:55:17;;;;;;;14.10;9.73;;;10.90;45.40;;;;;;5094223;28;20028;-29
2022/03/24 00:57:44;;;;;;;13.57;9.82;;;10.80;45.50;;;;;;5094041;28;20070;-29
2022/03/24 01:00:15;;;;;;;14.05;10.48;;;10.80;45.50;;;;;;5094181;28;20023;-29
2022/03/24 01:02:41;;;;;;;13.77;9.30;;;10.80;45.50;;;;;;5094361;28;20024;-32
2022/03/24 01:05:08;;;;;;;13.48;9.68;;;10.80;45.50;;;;;;5075978;28;20023;-33
2022/03/24 01:07:35;;;;;;;17.48;10.00;;;10.70;45.50;;;;;;5094052;28;20032;-34
2022/03/24 01:10:02;;;;;;;19.52;10.77;;;10.70;45.50;;;;;;5094234;28;20031;-36
2022/03/24 01:12:28;;;;;;;12.75;9.25;;;10.70;45.50;;;;;;5094239;28;20480;-29
2022/03/24 01:14:55;;;;;;;13.60;9.60;;;10.70;45.50;;;;;;5093863;28;20380;-29
2022/03/24 01:17:23;;;;;;;14.00;9.38;;;10.70;45.40;;;;;;5093843;28;20024;-35
2022/03/24 01:19:49;;;;;;;18.27;10.40;;;10.60;45.40;;;;;;5093888;28;20024;-30
2022/03/24 01:22:15;;;;;;;15.68;9.82;;;10.70;45.40;;;;;;5093843;28;20028;-29
2022/03/24 01:28:03;;;;;;;14.38;9.35;;;10.70;45.50;;;;;;5094080;28;20455;-31
2022/03/24 01:30:29;;;;;;;16.23;10.00;;;10.60;45.50;;;;;;5093751;28;20028;-29
2022/03/24 01:32:55;;;;;;;15.55;9.23;;;10.60;45.50;;;;;;5093536;28;20098;-29
2022/03/24 01:35:20;;;;;;;13.63;9.27;;;10.60;46.20;;;;;;5093840;28;20016;-28
2022/03/24 01:37:46;;;;;;;16.35;10.10;;;10.60;45.70;;;;;;5093531;28;20055;-29
2022/03/24 01:40:13;;;;;;;16.25;9.68;;;10.50;45.80;;;;;;5093418;28;20031;-28
2022/03/24 01:42:40;;;;;;;14.95;9.70;;;10.50;46.00;;;;;;5093497;28;20024;-30
2022/03/24 01:45:08;;;;;;;16.23;9.75;;;10.50;46.00;;;;;;5093391;28;20503;-29
2022/03/24 01:47:35;;;;;;;15.82;10.23;;;10.40;46.10;;;;;;5093590;28;20396;-28
2022/03/24 01:50:01;;;;;;;17.30;10.18;;;10.40;46.20;;;;;;5075068;28;20024;-31
2022/03/24 01:52:28;;;;;;;17.95;10.68;;;10.40;46.40;;;;;;5075114;28;20111;-30
2022/03/24 01:54:56;;;;;;;16.75;10.18;;;10.30;46.40;;;;;;5093438;28;20055;-29
2022/03/24 01:57:24;;;;;;;20.33;10.15;;;10.30;46.60;;;;;;5092871;28;20056;-28
2022/03/24 01:59:50;;;;;;;15.82;9.80;;;10.20;46.70;;;;;;5092951;28;20051;-29
2022/03/24 02:02:15;;;;;;;17.85;10.32;;;10.20;46.70;;;;;;5092801;28;20387;-29
2022/03/24 02:04:43;;;;;;;16.77;9.77;;;10.20;46.90;;;;;;5093081;28;20059;-29
2022/03/24 02:07:10;;;;;;;16.80;10.05;;;10.10;47.00;;;;;;5093311;28;20031;-28
2022/03/24 02:09:36;;;;;;;16.05;9.68;;;10.10;47.70;;;;;;5093086;28;20167;-31
2022/03/24 02:12:07;;;;;;;16.98;10.40;;;10.00;47.20;;;;;;5092992;28;20024;-30
2022/03/24 02:14:33;;;;;;;16.70;9.80;;;10.00;47.50;;;;;;5092979;28;20028;-30
2022/03/24 02:16:59;;;;;;;20.25;10.27;;;10.00;47.60;;;;;;5093145;28;20028;-30
2022/03/24 02:19:26;;;;;;;14.23;9.95;;;9.90;47.70;;;;;;5074744;28;20047;-30
2022/03/24 02:21:56;;;;;;;16.77;9.85;;;9.90;47.90;;;;;;5074782;28;20020;-28
2022/03/24 02:24:26;;;;;;;15.30;9.85;;;9.90;48.00;;;;;;5074653;28;20021;-29
2022/03/24 02:26:52;;;;;;;19.50;10.75;;;9.80;48.10;;;;;;5092826;28;20020;-28
2022/03/24 02:29:19;;;;;;;15.38;9.70;;;9.80;48.20;;;;;;5092856;28;20487;-34
2022/03/24 02:31:49;;;;;;;14.90;10.02;;;9.80;48.30;;;;;;5092777;28;20012;-30
2022/03/24 02:37:02;;;;;;;17.95;10.32;;;9.70;48.60;;;;;;5092982;28;20499;-28
2022/03/24 02:39:28;;;;;;;15.40;9.88;;;9.70;48.60;;;;;;5092657;28;20032;-28
2022/03/24 02:41:58;;;;;;;14.75;10.02;;;9.70;48.90;;;;;;5092872;28;20027;-29
2022/03/24 02:44:30;;;;;;;16.98;10.43;;;9.70;48.90;;;;;;5092658;28;20039;-29
2022/03/24 02:46:57;;;;;;;14.63;9.50;;;9.70;49.00;;;;;;5092970;28;20103;-29
2022/03/24 02:49:26;;;;;;;17.52;10.43;;;9.60;49.00;;;;;;5092887;28;20052;-29
2022/03/24 02:51:53;;;;;;;18.40;10.70;;;9.60;49.10;;;;;;5074475;28;20027;-42
2022/03/24 02:54:20;;;;;;;19.48;11.68;;;9.50;49.20;;;;;;5092678;28;20476;-28
2022/03/24 02:56:46;;;;;;;16.90;10.65;;;9.50;49.40;;;;;;5057910;28;20048;-28
2022/03/24 02:59:12;;;;;;;15.15;9.90;;;9.50;49.50;;;;;;5092494;28;20031;-30
2022/03/24 03:01:44;;;;;;;19.70;10.45;;;9.40;49.70;;;;;;5092534;28;20472;-29
2022/03/24 03:04:10;;;;;;;16.90;10.90;;;9.40;49.80;;;;;;5092756;28;20028;-29
2022/03/24 03:06:36;;;;;;;15.40;10.68;;;9.40;49.80;;;;;;5092362;28;20054;-28
2022/03/24 03:09:04;;;;;;;16.90;10.63;;;9.40;50.00;;;;;;5092686;28;20451;-29
2022/03/24 03:11:30;;;;;;;18.83;10.35;;;9.30;50.00;;;;;;5092650;28;20107;-28
2022/03/24 03:13:56;;;;;;;17.10;10.45;;;9.30;50.20;;;;;;5096559;28;20081;-29
2022/03/24 03:16:22;;;;;;;16.40;10.18;;;9.20;50.20;;;;;;5096240;28;20086;-32
2022/03/24 03:18:48;;;;;;;18.73;10.90;;;9.20;50.40;;;;;;5096163;28;20035;-27
2022/03/24 03:21:16;;;;;;;17.05;10.98;;;9.20;50.50;;;;;;5096130;28;20024;-28
2022/03/24 03:23:43;;;;;;;17.30;10.77;;;9.10;50.60;;;;;;5096307;28;20484;-29
2022/03/24 03:26:10;;;;;;;18.13;11.18;;;9.10;50.70;;;;;;5095953;28;20105;-28
2022/03/24 03:28:35;;;;;;;18.67;11.05;;;9.10;50.80;;;;;;5095964;28;20051;-29
2022/03/24 03:31:02;;;;;;;16.10;10.88;;;9.10;50.80;;;;;;5077747;28;20028;-28
2022/03/24 03:33:28;;;;;;;20.05;12.30;;;9.10;50.90;;;;;;5095750;28;20081;-30
2022/03/24 03:35:53;;;;;;;16.63;10.93;;;9.10;50.80;;;;;;5077559;28;20024;-29
2022/03/24 03:38:20;;;;;;;18.00;10.85;;;9.10;50.80;;;;;;5095631;28;20313;-30
2022/03/24 03:40:46;;;;;;;19.50;11.10;;;9.10;50.90;;;;;;5095785;28;20117;-29
2022/03/24 03:43:12;;;;;;;19.67;11.40;;;9.10;50.90;;;;;;5095675;28;20023;-28
2022/03/24 03:45:38;;;;;;;18.08;11.07;;;9.10;51.40;;;;;;5095771;28;20040;-30
2022/03/24 03:48:05;;;;;;;18.73;11.52;;;9.10;50.80;;;;;;5095499;28;20082;-28
2022/03/24 03:50:31;;;;;;;18.20;10.98;;;9.10;50.80;;;;;;5095533;28;20047;-28
2022/03/24 03:52:56;;;;;;;17.23;10.68;;;9.10;50.80;;;;;;5095783;28;20024;-29
2022/03/24 03:55:22;;;;;;;17.75;10.40;;;9.10;50.80;;;;;;5095355;28;20050;-30
2022/03/24 03:57:48;;;;;;;16.65;11.13;;;9.10;50.90;;;;;;5095107;28;20058;-33
2022/03/24 04:03:03;;;;;;;18.52;11.20;;;9.00;51.10;;;;;;5095518;28;20030;-33
2022/03/24 04:05:32;;;;;;;18.17;11.43;;;9.00;51.30;;;;;;5076981;28;20035;-29
2022/03/24 04:07:59;;;;;;;18.95;12.35;;;8.90;51.30;;;;;;5095192;28;20056;-29
2022/03/24 04:10:27;;;;;;;17.50;11.23;;;9.00;51.60;;;;;;5095137;28;20094;-30
2022/03/24 04:13:02;;;;;;;17.17;10.68;;;8.90;51.60;;;;;;5095216;28;20488;-28
2022/03/24 04:15:28;;;;;;;19.10;11.00;;;8.90;51.70;;;;;;5095285;28;20028;-29
2022/03/24 04:17:53;;;;;;;16.92;10.60;;;8.90;51.80;;;;;;5094875;28;20031;-28
2022/03/24 04:20:23;;;;;;;17.02;10.75;;;8.80;51.80;;;;;;5094821;28;20073;-29
2022/03/24 04:22:53;;;;;;;17.23;10.85;;;8.80;51.90;;;;;;5094692;28;20016;-29
2022/03/24 04:25:21;;;;;;;16.90;10.48;;;8.80;52.10;;;;;;5094227;28;20503;-28
2022/03/24 04:27:48;;;;;;;18.25;11.43;;;8.70;52.10;;;;;;5094824;28;20442;-28
2022/03/24 04:30:14;;;;;;;18.55;10.57;;;8.70;52.20;;;;;;5076480;28;20024;-28
2022/03/24 04:32:40;;;;;;;17.88;10.73;;;8.70;52.30;;;;;;5094575;28;20024;-29
2022/03/24 04:35:08;;;;;;;18.58;10.75;;;8.70;52.20;;;;;;5094629;28;20031;-29
2022/03/24 04:37:34;;;;;;;16.48;10.68;;;8.70;52.20;;;;;;5094743;28;20472;-29
2022/03/24 04:40:00;;;;;;;18.63;11.48;;;8.70;52.30;;;;;;5076294;28;20035;-31
2022/03/24 04:42:26;;;;;;;17.08;10.93;;;8.60;52.40;;;;;;5094404;28;20020;-29
2022/03/24 04:44:52;;;;;;;16.95;11.40;;;8.70;52.50;;;;;;5094418;28;20048;-29
2022/03/24 04:47:17;;;;;;;19.70;12.00;;;8.60;52.50;;;;;;5094373;28;20055;-28
2022/03/24 04:49:43;;;;;;;17.55;11.35;;;8.60;52.70;;;;;;5094337;28;20016;-28
2022/03/24 04:52:09;;;;;;;16.00;10.88;;;8.60;52.70;;;;;;5094308;28;20431;-30
2022/03/24 04:54:35;;;;;;;17.92;11.32;;;8.50;52.80;;;;;;5094173;28;20023;-28
2022/03/24 04:57:01;;;;;;;17.35;11.05;;;8.50;52.90;;;;;;5093958;28;20105;-28
2022/03/24 04:59:26;;;;;;;19.58;11.90;;;8.40;52.90;;;;;;5094200;28;20021;-29
2022/03/24 05:01:52;;;;;;;15.77;10.20;;;8.40;53.10;;;;;;5094208;28;20490;-30
2022/03/24 05:04:17;;;;;;;17.50;10.27;;;8.30;53.20;;;;;;5094298;28;20019;-30
2022/03/24 05:06:43;;;;;;;15.63;10.52;;;8.30;53.40;;;;;;5075775;28;20024;-28
2022/03/24 05:09:09;;;;;;;15.10;10.27;;;8.30;53.60;;;;;;5094112;28;20142;-30
2022/03/24 05:11:34;;;;;;;14.65;10.45;;;8.20;53.60;;;;;;5093902;28;20499;-28
2022/03/24 05:14:01;;;;;;;18.83;11.60;;;8.20;53.80;;;;;;5093969;28;20488;-30
2022/03/24 05:16:27;;;;;;;16.50;11.07;;;8.10;53.80;;;;;;5093774;28;20448;-29
2022/03/24 05:18:53;;;;;;;17.17;11.57;;;8.10;54.00;;;;;;5093783;28;20023;-29
2022/03/24 05:21:19;;;;;;;20.70;11.55;;;8.10;54.10;;;;;;5093775;28;20032;-28
2022/03/24 05:23:45;;;;;;;17.92;11.27;;;8.00;54.10;;;;;;5093717;28;20358;-30
2022/03/24 05:26:10;;;;;;;17.98;11.40;;;8.00;54.10;;;;;;5093676;28;20020;-32
2022/03/24 05:28:36;;;;;;;18.75;11.43;;;8.00;54.10;;;;;;5093523;28;20020;-29
2022/03/24 05:31:02;;;;;;;17.75;11.93;;;8.00;54.10;;;;;;5093695;28;20035;-28
2022/03/24 05:33:27;;;;;;;20.00;11.88;;;8.00;54.20;;;;;;5093401;28;20028;-29
2022/03/24 05:35:53;;;;;;;18.23;11.88;;;8.00;54.20;;;;;;5093603;28;20111;-30
2022/03/24 05:38:18;;;;;;;17.63;11.20;;;8.00;54.20;;;;;;5093376;28;20384;-32
2022/03/24 05:40:44;;;;;;;18.15;11.27;;;8.00;54.20;;;;;;5093335;28;20028;-28
2022/03/24 05:43:10;;;;;;;16.38;11.02;;;8.00;54.20;;;;;;5093260;28;20024;-29
2022/03/24 05:45:36;;;;;;;17.80;10.60;;;8.00;54.20;;;;;;5093192;28;20385;-29
2022/03/24 05:48:02;;;;;;;16.95;11.73;;;8.00;54.30;;;;;;5093369;28;20024;-28
2022/03/24 05:50:29;;;;;;;22.65;11.50;;;8.00;54.30;;;;;;5093125;28;20020;-30
2022/03/24 05:52:56;;;;;;;17.42;11.27;;;8.00;54.40;;;;;;5093131;28;20024;-32
2022/03/24 05:55:23;;;;;;;18.73;11.85;;;8.00;54.40;;;;;;5093421;28;20043;-31
2022/03/24 05:57:49;;;;;;;19.42;12.13;;;8.00;54.50;;;;;;5092896;28;20048;-29
2022/03/24 06:00:15;;;;;;;17.67;12.05;;;8.00;54.50;;;;;;5093246;28;20107;-32
2022/03/24 06:02:41;;;;;;;17.85;11.75;;;8.00;54.50;;;;;;5093485;28;20091;-29
2022/03/24 06:05:12;;;;;;;20.23;12.00;;;8.00;54.50;;;;;;5093187;28;20115;-30
2022/03/24 06:07:38;;;;;;;19.40;11.70;;;8.00;54.50;;;;;;5093380;28;20097;-32
2022/03/24 06:10:04;;;;;;;17.42;11.30;;;8.00;54.50;;;;;;5074986;28;20472;-31
2022/03/24 06:12:31;;;;;;;19.23;11.73;;;8.00;54.50;;;;;;5092914;28;20510;-30
2022/03/24 06:14:57;;;;;;;18.73;11.55;;;8.10;54.70;;;;;;5093357;28;20020;-30
2022/03/24 06:17:23;;;;;;;19.48;12.55;;;8.10;54.70;;;;;;5092968;28;20452;-31
2022/03/24 06:19:49;;;;;;;18.08;11.65;;;8.10;54.80;;;;;;5093018;28;20012;-30
2022/03/24 06:22:16;;;;;;;19.45;11.98;;;8.10;54.90;;;;;;5093312;28;20047;-28
2022/03/24 06:24:42;;;;;;;21.17;11.70;;;8.10;55.00;;;;;;5074832;28;20023;-36
2022/03/24 06:27:09;;;;;;;17.52;11.02;;;8.20;55.10;;;;;;5093027;28;20491;-30
2022/03/24 06:29:35;;;;;;;19.70;11.77;;;8.20;55.10;;;;;;5092893;28;20027;-29
2022/03/24 06:32:01;;;;;;;17.95;11.90;;;8.20;55.10;;;;;;5092767;28;20020;-35
2022/03/24 06:34:27;;;;;;;19.08;11.63;;;8.30;55.10;;;;;;5092743;28;20024;-30
2022/03/24 06:36:56;;;;;;;20.15;12.30;;;8.30;55.10;;;;;;5092910;28;20365;-32
2022/03/24 06:39:22;;;;;;;18.13;12.27;;;8.30;55.00;;;;;;5092950;28;20020;-31
2022/03/24 06:41:48;;;;;;;18.48;12.13;;;8.40;55.00;;;;;;5092912;28;20032;-31
2022/03/24 06:44:14;;;;;;;20.17;12.43;;;8.40;55.00;;;;;;5092803;28;20031;-30
2022/03/24 06:46:40;;;;;;;19.05;12.52;;;8.50;55.00;;;;;;5093252;28;20020;-31
2022/03/24 06:49:07;;;;;;;23.13;12.32;;;8.50;54.90;;;;;;5097149;28;20494;-29
2022/03/24 06:51:34;;;;;;;19.85;12.98;;;8.60;54.90;;;;;;5096784;28;20051;-29
2022/03/24 06:54:00;;;;;;;19.90;12.27;;;8.60;54.90;;;;;;5097005;28;20500;-32
2022/03/24 06:56:25;;;;;;;20.63;12.45;;;8.70;54.80;;;;;;5096671;28;20051;-29
2022/03/24 06:58:51;;;;;;;20.58;12.40;;;8.70;54.80;;;;;;5096664;28;20028;-30
2022/03/24 07:01:18;;;;;;;20.77;12.35;;;8.80;54.80;;;;;;5078474;28;20020;-31
2022/03/24 07:03:43;;;;;;;19.95;13.02;;;8.80;54.70;;;;;;5096517;28;20118;-29
2022/03/24 07:06:09;;;;;;;22.10;13.20;;;8.90;54.70;;;;;;5096479;28;20060;-31
2022/03/24 07:08:35;;;;;;;23.02;12.88;;;9.00;54.70;;;;;;5096444;28;20031;-31
2022/03/24 07:11:03;;;;;;;23.45;14.20;;;9.00;54.70;;;;;;5096527;28;20361;-30
2022/03/24 07:13:29;;;;;;;19.70;13.45;;;9.10;54.70;;;;;;5096269;28;20020;-30
2022/03/24 07:15:54;;;;;;;19.70;13.20;;;9.20;54.60;;;;;;5096614;28;20031;-29
2022/03/24 07:18:20;;;;;;;21.20;13.35;;;9.30;54.60;;;;;;5096221;28;20476;-29
2022/03/24 07:20:47;;;;;;;21.20;12.52;;;9.30;54.50;;;;;;5096236;28;20016;-31
2022/03/24 07:23:13;;;;;;;19.92;12.43;;;9.40;54.50;;;;;;5096299;28;20024;-30
2022/03/24 07:25:39;;;;;;;17.30;11.35;;;9.50;54.50;;;;;;5095910;28;20358;-30
2022/03/24 07:28:05;;;;;;;19.48;11.40;;;9.70;54.50;;;;;;5096241;28;20434;-31
2022/03/24 07:30:32;;;;;;;20.33;11.80;;;9.80;54.50;;;;;;5095976;28;20032;-29
2022/03/24 07:33:02;;;;;;;19.92;11.63;;;9.90;54.50;;;;;;5095997;28;20028;-31
2022/03/24 07:35:30;;;;;;;17.70;11.48;;;9.90;54.40;;;;;;5096269;28;20030;-30
2022/03/24 07:37:56;;;;;;;22.55;14.32;;;10.00;54.30;;;;;;5095759;28;20016;-30
2022/03/24 07:40:22;;;;;;;20.70;12.98;;;10.10;54.20;;;;;;5095569;28;20024;-34
2022/03/24 07:42:49;;;;;;;18.73;12.48;;;10.20;54.10;;;;;;5095861;28;20028;-30
2022/03/24 07:45:16;;;;;;;21.60;13.23;;;10.30;54.00;;;;;;5077947;28;20413;-30
2022/03/24 07:48:12;;;;;;;23.23;13.93;;;10.40;53.90;;;;;;5095690;28;20491;-30
2022/03/24 07:50:42;;;;;;;20.77;13.13;;;10.50;53.60;;;;;;5095960;28;20024;-30
2022/03/24 07:53:14;;;;;;;21.92;13.80;;;10.60;53.40;;;;;;5077526;28;20047;-29
2022/03/24 07:55:48;;;;;;;20.77;13.02;;;10.70;53.30;;;;;;5095209;28;20031;-29
2022/03/24 07:58:17;;;;;;;21.80;13.63;;;10.80;53.00;;;;;;5094757;28;20465;-33
2022/03/24 08:00:43;;;;;;;20.55;13.02;;;11.00;52.90;;;;;;5095527;28;20024;-31
2022/03/24 08:03:17;;;;;;;20.95;14.32;;;11.00;52.60;;;;;;5095824;28;20118;-31
2022/03/24 08:05:43;;;;;;;21.65;14.25;;;11.10;52.40;;;;;;5077213;28;20027;-30
2022/03/24 08:08:09;;;;;;;22.90;12.75;;;11.30;52.30;;;;;;5095530;28;20025;-32
2022/03/24 08:10:39;;;;;;;21.08;13.23;;;11.30;52.00;;;;;;5095297;28;20032;-30
2022/03/24 08:13:05;;;;;;;22.52;14.75;;;11.40;51.90;;;;;;5095547;28;20103;-31
2022/03/24 08:15:32;;;;;;;20.90;12.80;;;11.50;51.70;;;;;;5095442;28;20020;-34
2022/03/24 08:17:57;;;;;;;20.33;12.88;;;11.60;51.50;;;;;;5094385;28;20055;-31
2022/03/24 08:20:23;;;;;;;21.70;12.25;;;11.70;51.30;;;;;;5095120;28;20020;-31
2022/03/24 08:22:49;;;;;;;21.35;13.50;;;11.80;51.00;;;;;;5095495;28;20020;-32
2022/03/24 08:25:15;;;;;;;20.13;12.88;;;11.90;50.80;;;;;;5095302;28;20376;-31
2022/03/24 08:27:41;;;;;;;20.20;12.02;;;12.00;50.50;;;;;;5094925;28;20555;-31
2022/03/24 08:30:07;;;;;;;20.05;12.32;;;12.10;50.30;;;;;;5076777;28;20020;-34
2022/03/24 08:32:33;;;;;;;20.77;12.25;;;12.20;50.00;;;;;;5076644;28;20035;-30
2022/03/24 08:34:58;;;;;;;18.42;11.95;;;12.30;49.80;;;;;;5076613;28;20020;-30
2022/03/24 08:37:24;;;;;;;19.98;12.43;;;12.40;49.60;;;;;;5094791;28;20030;-31
2022/03/24 08:39:50;;;;;;;21.27;11.45;;;12.50;49.30;;;;;;5094832;28;20362;-29
2022/03/24 08:42:15;;;;;;;16.42;10.50;;;12.60;48.80;;;;;;5094794;28;20103;-31
2022/03/24 08:44:41;;;;;;;15.10;10.18;;;12.70;48.20;;;;;;5076582;28;20103;-32
2022/03/24 08:47:07;;;;;;;18.13;10.90;;;12.80;46.90;;;;;;5094933;28;20046;-30
2022/03/24 08:49:33;;;;;;;15.20;11.25;;;12.90;46.10;;;;;;5094635;28;20027;-29
2022/03/24 08:51:59;;;;;;;14.68;11.00;;;13.10;45.50;;;;;;5094894;28;20032;-31
2022/03/24 08:54:25;;;;;;;15.50;10.73;;;13.20;44.50;;;;;;5094450;28;20028;-30
2022/03/24 08:56:51;;;;;;;16.15;11.70;;;13.30;44.20;;;;;;5094346;28;20051;-32
2022/03/24 08:59:17;;;;;;;15.65;10.02;;;13.30;43.80;;;;;;5094363;28;20060;-35
2022/03/24 09:01:43;;;;;;;16.00;11.27;;;13.50;43.70;;;;;;5094638;28;20498;-31
2022/03/24 09:04:10;;;;;;;15.52;11.45;;;13.60;43.50;;;;;;5076258;28;20099;-30
2022/03/24 09:06:36;;;;;;;16.00;11.23;;;13.70;43.50;;;;;;5094307;28;20519;-31
2022/03/24 09:09:02;;;;;;;14.68;11.07;;;13.80;43.30;;;;;;5094249;28;20020;-31
2022/03/24 09:11:28;;;;;;;14.80;11.30;;;13.90;42.80;;;;;;5093958;28;20549;-32
2022/03/24 09:13:54;;;;;;;18.35;11.15;;;14.00;42.40;;;;;;5094202;28;20425;-32
2022/03/24 09:16:20;;;;;;;18.05;11.30;;;14.00;42.10;;;;;;5093990;28;20060;-31
2022/03/24 09:18:46;;;;;;;17.38;10.73;;;14.20;42.00;;;;;;5094248;28;20065;-31
2022/03/24 09:21:12;;;;;;;15.10;10.65;;;14.30;41.80;;;;;;5094006;28;20016;-29
2022/03/24 09:23:38;;;;;;;16.30;10.93;;;14.40;41.20;;;;;;5093991;28;20020;-30
2022/03/24 09:26:03;;;;;;;18.58;11.55;;;14.40;40.90;;;;;;5093885;28;20465;-31
2022/03/24 09:28:29;;;;;;;14.45;9.95;;;14.50;40.40;;;;;;5093892;28;20028;-30
2022/03/24 09:30:55;;;;;;;16.73;11.57;;;14.60;40.50;;;;;;5075749;28;20126;-30
2022/03/24 09:33:21;;;;;;;17.30;10.95;;;14.70;40.10;;;;;;5093911;28;20035;-30
2022/03/24 09:35:49;;;;;;;16.23;10.95;;;14.80;40.50;;;;;;5094097;28;20431;-35
2022/03/24 09:38:14;;;;;;;17.23;9.93;;;14.90;40.40;;;;;;5093625;28;20043;-31
2022/03/24 09:40:41;;;;;;;12.95;9.32;;;14.90;40.40;;;;;;5093574;28;20024;-32
2022/03/24 09:43:07;;;;;;;12.88;9.00;;;15.00;40.50;;;;;;5093885;28;20537;-33
2022/03/24 09:45:34;;;;;;;15.50;10.38;;;15.20;40.50;;;;;;5093571;28;20107;-30
2022/03/24 09:48:00;;;;;;;14.73;9.60;;;15.20;40.00;;;;;;5093554;28;20392;-32
2022/03/24 09:50:28;;;;;;;17.52;10.35;;;15.30;40.00;;;;;;5092860;28;20435;-31
2022/03/24 09:52:54;;;;;;;17.10;10.52;;;15.30;40.00;;;;;;5093441;28;20107;-32
2022/03/24 09:55:20;;;;;;;15.60;10.70;;;15.40;39.80;;;;;;5093320;28;20116;-33
2022/03/24 09:57:49;;;;;;;15.95;9.65;;;15.50;39.80;;;;;;5093038;28;20090;-32
2022/03/24 10:00:16;;;;;;;16.45;10.55;;;15.50;40.00;;;;;;5093217;28;20020;-32
2022/03/24 10:02:41;;;;;;;14.20;8.85;;;15.60;40.20;;;;;;5093174;28;20039;-30
2022/03/24 10:05:10;;;;;;;13.90;9.25;;;15.60;40.10;;;;;;5075394;28;20063;-31
2022/03/24 10:07:47;;;;;;;15.43;9.40;;;15.70;40.30;;;;;;5093448;28;20480;-31
2022/03/24 10:10:27;;;;;;;15.05;9.10;;;15.80;40.30;;;;;;5093092;28;20431;-30
2022/03/24 10:12:53;;;;;;;15.00;9.60;;;15.90;40.40;;;;;;5093351;28;20111;-30
2022/03/24 10:15:19;;;;;;;15.57;9.98;;;15.90;40.60;;;;;;5093072;28;20531;-30
2022/03/24 10:17:53;;;;;;;16.88;9.05;;;16.00;40.50;;;;;;5093270;28;20020;-30
2022/03/24 10:20:19;;;;;;;17.40;9.68;;;16.10;40.60;;;;;;5092995;28;20020;-35
2022/03/24 10:23:03;;;;;;;12.18;8.20;;;16.20;40.40;;;;;;5074173;28;20491;-30
2022/03/24 10:25:31;;;;;;;11.43;6.95;;;16.20;40.60;;;;;;5093238;28;20024;-30
2022/03/24 10:28:10;;;;;;;13.30;8.00;;;16.30;41.20;;;;;;5092969;28;20024;-30
2022/03/24 10:30:54;;;;;;;13.43;8.30;;;16.30;41.40;;;;;;5092976;28;20077;-31
2022/03/24 10:33:27;;;;;;;14.15;7.82;;;16.40;41.10;;;;;;5092801;28;20488;-34
2022/03/24 10:36:13;;;;;;;12.88;8.38;;;16.50;42.20;;;;;;5092951;28;20030;-33
2022/03/24 10:38:42;;;;;;;16.73;9.63;;;16.60;41.50;;;;;;5074848;28;20024;-30
2022/03/24 10:41:26;;;;;;;15.18;10.13;;;16.60;41.20;;;;;;5093167;28;20024;-31
2022/03/24 10:43:54;;;;;;;13.77;9.40;;;16.60;40.70;;;;;;5093089;28;20361;-30
2022/03/24 10:46:23;;;;;;;13.82;9.38;;;16.60;39.20;;;;;;5093107;28;20024;-30
2022/03/24 10:48:50;;;;;;;12.32;9.75;;;16.60;38.40;;;;;;5092837;28;20027;-31
2022/03/24 10:51:31;;;;;;;13.95;10.05;;;16.70;37.20;;;;;;5092828;28;20024;-30
2022/03/24 10:54:14;;;;;;;11.88;8.75;;;16.70;37.50;;;;;;5092790;28;20028;-32
2022/03/24 10:56:55;;;;;;;11.20;8.27;;;16.80;37.80;;;;;;5092747;28;20408;-30
2022/03/24 10:59:26;;;;;;;13.80;8.73;;;16.90;38.30;;;;;;5092612;28;20286;-30
2022/03/24 11:01:53;;;;;;;12.48;7.57;;;17.00;38.70;;;;;;5074546;28;20031;-30
2022/03/24 11:04:19;;;;;;;13.63;9.23;;;17.00;39.10;;;;;;5092912;28;20039;-31
2022/03/24 11:06:49;;;;;;;17.63;9.35;;;17.10;38.30;;;;;;5092922;28;20048;-31
2022/03/24 11:09:27;;;;;;;11.27;8.60;;;17.10;37.80;;;;;;5092844;28;20422;-33
2022/03/24 11:12:22;;;;;;;13.45;8.60;;;17.10;37.40;;;;;;5092811;28;20028;-31
2022/03/24 11:14:51;;;;;;;11.93;7.63;;;17.20;37.80;;;;;;5092570;28;20028;-31
2022/03/24 11:17:17;;;;;;;12.38;8.85;;;17.20;38.70;;;;;;5092741;28;20447;-31
2022/03/24 11:20:10;;;;;;;12.90;9.27;;;17.30;38.10;;;;;;5092467;28;20027;-31
2022/03/24 11:22:56;;;;;;;11.95;9.25;;;17.40;37.40;;;;;;5074676;28;20036;-31
2022/03/24 11:25:24;;;;;;;14.90;10.10;;;17.50;36.70;;;;;;5092693;28;20473;-31
2022/03/24 11:27:51;;;;;;;17.05;9.70;;;17.50;36.20;;;;;;5074672;28;20054;-31
2022/03/24 11:30:21;;;;;;;14.13;10.38;;;17.50;36.20;;;;;;5092426;28;20109;-30
2022/03/24 11:32:49;;;;;;;13.90;10.07;;;17.50;36.10;;;;;;5093077;28;20444;-31
2022/03/24 11:35:16;;;;;;;17.42;11.48;;;17.60;35.90;;;;;;5096458;28;20035;-31
2022/03/24 11:37:42;;;;;;;12.88;10.23;;;17.60;35.70;;;;;;5095989;28;20038;-30
2022/03/24 11:40:24;;;;;;;17.33;10.75;;;17.60;36.00;;;;;;5095862;28;20070;-31
2022/03/24 11:42:56;;;;;;;16.70;10.43;;;17.70;35.80;;;;;;5096097;28;20114;-32
2022/03/24 11:45:31;;;;;;;16.23;10.52;;;17.80;35.80;;;;;;5095873;28;20531;-31
2022/03/24 11:48:05;;;;;;;13.00;9.90;;;17.80;35.40;;;;;;5095815;28;20056;-33
2022/03/24 11:50:57;;;;;;;16.23;9.48;;;17.90;35.60;;;;;;5095837;28;20036;-32
2022/03/24 11:53:25;;;;;;;13.85;9.07;;;17.90;36.50;;;;;;5095713;28;20028;-32
2022/03/24 11:56:03;;;;;;;14.82;10.60;;;18.00;36.80;;;;;;5095492;28;20511;-30
2022/03/24 11:58:35;;;;;;;14.32;10.55;;;18.10;35.80;;;;;;5095887;28;20599;-31
2022/03/24 12:01:21;;;;;;;13.30;10.20;;;18.10;35.60;;;;;;5095587;28;20077;-32
2022/03/24 12:04:00;;;;;;;13.50;9.18;;;18.20;35.80;;;;;;5095325;28;20030;-30
2022/03/24 12:06:41;;;;;;;13.60;9.07;;;18.30;36.40;;;;;;5095182;28;20490;-31
2022/03/24 12:09:14;;;;;;;13.35;9.00;;;18.40;36.10;;;;;;5095691;28;20063;-31
2022/03/24 12:11:44;;;;;;;;;;;18.40;36.30;;;;;;5096030;28;20035;-30
2022/03/24 12:14:13;;;;;;;12.95;8.60;;;18.50;35.70;;;;;;5095348;28;20387;-30
2022/03/24 12:16:41;;;;;;;19.42;10.13;;;18.50;35.30;;;;;;5095559;28;20032;-32
2022/03/24 12:19:44;;;;;;;14.10;9.40;;;18.40;34.90;;;;;;5095227;28;20028;-31
2022/03/24 12:22:24;;;;;;;11.93;7.88;;;18.50;35.00;;;;;;5043030;28;20051;-30
2022/03/24 12:24:51;;;;;;;13.13;8.43;;;18.50;35.20;;;;;;5095101;28;20032;-31
2022/03/24 12:27:17;;;;;;;13.23;9.05;;;18.60;35.70;;;;;;5095132;28;20032;-30
2022/03/24 12:30:16;;;;;;;13.70;8.45;;;18.70;34.70;;;;;;5095263;28;20024;-30
2022/03/24 12:32:43;;;;;;;14.82;8.48;;;18.70;34.30;;;;;;5094940;28;20023;-32
2022/03/24 12:35:42;;;;;;;11.93;7.63;;;18.80;34.20;;;;;;5094939;28;20028;-30
2022/03/24 12:38:32;;;;;;;15.88;8.48;;;18.80;33.50;;;;;;5094840;28;20052;-30
2022/03/24 12:41:07;;;;;;;11.82;7.45;;;18.90;34.10;;;;;;5094792;28;20020;-33
2022/03/24 12:43:38;;;;;;;15.20;8.45;;;18.90;33.70;;;;;;5094826;28;20361;-35
2022/03/24 12:46:23;;;;;;;17.40;7.93;;;19.00;33.30;;;;;;5094066;28;20059;-31
2022/03/24 12:48:50;;;;;;;11.85;6.72;;;19.00;32.70;;;;;;5094996;28;20044;-30